Time;durP1;ratioP1;P1;durP2;ratioP2;P2;SDS_P1;SDS_P2;PMS_P1;PMS_P2;Temp;Humidity;BMP_temperature;BMP_pressure;BME280_temperature;BME280_humidity;BME280_pressure;Samples;Min_cycle;Max_cycle;Signal;HPM_P1;HPM_P2
2022/10/02 00:02:25;;;;;;;16.17;2.58;;;12.30;99.90;;;;;;5027311;28;20041;-64
2022/10/02 00:04:56;;;;;;;19.65;3.38;;;12.30;99.90;;;;;;5022280;28;20037;-64
2022/10/02 00:07:29;;;;;;;10.80;2.80;;;12.40;99.90;;;;;;5034510;28;20408;-63
2022/10/02 00:10:05;;;;;;;9.52;2.22;;;12.30;99.90;;;;;;5033441;28;20045;-64
2022/10/02 00:12:31;;;;;;;14.13;2.67;;;;;;;;;;5033354;28;20107;-63
2022/10/02 00:15:05;;;;;;;14.55;3.47;;;12.20;99.90;;;;;;5033290;28;20099;-64
2022/10/02 00:17:41;;;;;;;16.97;4.87;;;12.30;99.90;;;;;;5033202;28;20095;-64
2022/10/02 00:20:13;;;;;;;7.60;2.50;;;12.30;99.90;;;;;;5033309;28;20045;-64
2022/10/02 00:22:48;;;;;;;12.35;2.63;;;12.30;99.90;;;;;;5033335;28;20542;-64
2022/10/02 00:25:33;;;;;;;11.30;2.47;;;12.20;99.90;;;;;;5032791;28;20041;-64
2022/10/02 00:28:16;;;;;;;11.18;2.60;;;12.10;99.90;;;;;;5033066;28;20045;-64
2022/10/02 00:31:15;;;;;;;8.70;2.00;;;12.10;99.90;;;;;;5033009;28;20083;-64
2022/10/02 00:34:20;;;;;;;17.73;2.55;;;12.00;99.90;;;;;;5033974;28;20045;-64
2022/10/02 00:36:51;;;;;;;7.03;1.70;;;12.10;99.90;;;;;;5033180;28;20063;-64
2022/10/02 00:39:47;;;;;;;10.50;2.10;;;12.20;99.90;;;;;;5032914;28;20041;-64
2022/10/02 00:42:32;;;;;;;8.27;1.80;;;12.10;99.90;;;;;;5016333;28;20055;-64
2022/10/02 00:45:24;;;;;;;;;;;12.00;99.90;;;;;;5033050;28;20503;-63
2022/10/02 00:48:14;;;;;;;12.02;2.47;;;12.00;99.90;;;;;;5017090;28;19917;-64
2022/10/02 00:50:59;;;;;;;5.57;1.80;;;12.00;99.90;;;;;;5032688;28;20056;-64
2022/10/02 00:53:39;;;;;;;7.93;2.00;;;12.00;99.90;;;;;;5032526;28;20045;-64
2022/10/02 00:56:29;;;;;;;6.55;1.95;;;11.80;99.90;;;;;;5033765;28;20068;-64
2022/10/02 00:59:12;;;;;;;10.63;2.25;;;12.10;99.90;;;;;;5031758;28;20080;-64
2022/10/02 01:01:50;;;;;;;9.38;2.22;;;12.20;99.90;;;;;;5033773;28;20056;-64
2022/10/02 01:04:28;;;;;;;9.43;2.67;;;12.20;99.90;;;;;;5032446;28;20041;-65
2022/10/02 01:06:55;;;;;;;7.43;1.67;;;12.20;99.90;;;;;;5033490;28;20048;-64
2022/10/02 01:09:21;;;;;;;6.25;3.20;;;12.30;99.90;;;;;;5033397;28;20033;-63
2022/10/02 01:11:47;;;;;;;11.68;1.88;;;12.40;99.90;;;;;;5032270;28;20049;-63
2022/10/02 01:14:14;;;;;;;10.93;2.17;;;12.50;99.90;;;;;;5033006;28;20536;-64
2022/10/02 01:16:41;;;;;;;10.18;1.88;;;12.60;99.90;;;;;;5033768;28;20033;-64
2022/10/02 01:19:20;;;;;;;9.35;1.88;;;12.60;99.90;;;;;;5033382;28;20052;-63
2022/10/02 01:21:54;;;;;;;5.10;1.98;;;12.50;99.90;;;;;;5033184;28;20411;-64
2022/10/02 01:24:31;;;;;;;8.57;2.08;;;12.60;99.90;;;;;;5032229;28;20060;-64
2022/10/02 01:26:57;;;;;;;10.52;1.75;;;12.60;99.90;;;;;;5033376;28;20056;-64
2022/10/02 01:29:23;;;;;;;9.85;2.72;;;12.50;99.90;;;;;;5032058;28;20037;-64
2022/10/02 01:31:48;;;;;;;8.82;1.77;;;12.30;99.90;;;;;;5031914;28;20122;-64
2022/10/02 01:34:14;;;;;;;10.55;2.47;;;12.40;99.90;;;;;;5032985;28;20617;-64
2022/10/02 01:36:40;;;;;;;8.05;2.00;;;12.50;99.90;;;;;;5033112;28;20052;-64
2022/10/02 01:39:06;;;;;;;9.85;1.95;;;12.50;99.90;;;;;;5033034;28;20475;-64
2022/10/02 01:41:38;;;;;;;5.05;1.33;;;12.50;99.90;;;;;;5033128;28;20041;-64
2022/10/02 01:44:04;;;;;;;10.05;1.98;;;12.50;99.90;;;;;;5015084;28;20042;-64
2022/10/02 01:47:06;;;;;;;8.88;1.70;;;12.50;99.90;;;;;;5033287;28;20042;-64
2022/10/02 01:50:16;;;;;;;8.52;2.22;;;12.40;99.90;;;;;;5019323;28;20041;-64
2022/10/02 01:52:44;;;;;;;10.00;1.80;;;12.40;99.90;;;;;;5028605;28;20087;-63
2022/10/02 01:55:30;;;;;;;9.27;1.70;;;12.30;99.90;;;;;;5031754;28;20085;-64
2022/10/02 01:58:28;;;;;;;5.13;1.85;;;12.70;99.90;;;;;;5031911;28;20041;-64
2022/10/02 02:01:12;;;;;;;6.68;2.15;;;12.40;99.90;;;;;;5013241;28;20074;-63
2022/10/02 02:03:51;;;;;;;10.98;2.65;;;12.40;99.90;;;;;;5032714;28;20427;-64
2022/10/02 02:06:38;;;;;;;7.93;2.60;;;12.40;99.90;;;;;;5031577;28;20041;-64
2022/10/02 02:09:12;;;;;;;8.88;1.90;;;12.30;99.90;;;;;;5031562;28;20080;-64
2022/10/02 02:11:43;;;;;;;9.30;2.17;;;12.10;99.90;;;;;;5035475;28;20087;-64
2022/10/02 02:14:30;;;;;;;7.43;1.70;;;12.20;99.90;;;;;;5036539;28;20069;-64
2022/10/02 02:17:12;;;;;;;10.80;2.05;;;12.30;99.90;;;;;;5024692;28;20034;-64
2022/10/02 02:19:45;;;;;;;9.95;2.10;;;12.20;99.90;;;;;;5036518;28;20160;-64
2022/10/02 02:22:25;;;;;;;7.40;2.28;;;12.10;99.90;;;;;;5035775;28;20091;-64
2022/10/02 02:24:59;;;;;;;9.05;2.30;;;12.30;99.90;;;;;;5036190;28;20617;-64
2022/10/02 02:27:33;;;;;;;8.40;2.10;;;12.20;99.90;;;;;;5037693;28;20042;-64
2022/10/02 02:30:06;;;;;;;9.23;2.65;;;12.20;99.90;;;;;;5032975;28;20113;-63
2022/10/02 02:32:36;;;;;;;8.98;1.90;;;12.20;99.90;;;;;;5036316;28;20120;-64
2022/10/02 02:35:16;;;;;;;13.63;2.55;;;12.30;99.90;;;;;;5036231;28;20033;-64
2022/10/02 02:37:44;;;;;;;11.95;2.22;;;12.20;99.90;;;;;;5035251;28;20487;-63
2022/10/02 02:40:18;;;;;;;9.88;2.67;;;12.20;99.90;;;;;;5034960;28;20037;-63
2022/10/02 02:43:00;;;;;;;11.30;2.60;;;12.10;99.90;;;;;;5018838;28;20046;-63
2022/10/02 02:45:40;;;;;;;13.70;2.45;;;12.20;99.90;;;;;;5035209;28;20069;-63
2022/10/02 02:48:22;;;;;;;12.13;2.10;;;12.00;99.90;;;;;;5018431;28;20068;-64
2022/10/02 02:51:02;;;;;;;9.32;2.78;;;12.10;99.90;;;;;;5036077;28;20063;-64
2022/10/02 02:53:43;;;;;;;9.38;1.98;;;12.20;99.90;;;;;;5036034;28;20124;-64
2022/10/02 02:56:12;;;;;;;12.07;1.80;;;12.20;99.90;;;;;;5022629;28;20041;-64
2022/10/02 02:59:01;;;;;;;10.50;1.88;;;12.30;99.90;;;;;;5034642;28;20055;-64
2022/10/02 03:01:26;;;;;;;14.43;2.10;;;12.20;99.90;;;;;;5023040;28;20462;-65
2022/10/02 03:03:52;;;;;;;9.55;2.40;;;12.00;99.90;;;;;;5035681;28;20034;-64
2022/10/02 03:06:17;;;;;;;11.73;2.40;;;12.20;99.90;;;;;;5034458;28;20510;-64
2022/10/02 03:08:45;;;;;;;13.52;1.95;;;12.20;99.90;;;;;;5034450;28;20103;-64
2022/10/02 03:11:44;;;;;;;19.65;3.35;;;12.30;99.90;;;;;;5035829;28;20049;-64
2022/10/02 03:14:38;;;;;;;12.27;1.88;;;12.30;99.90;;;;;;5035321;28;20055;-64
2022/10/02 03:17:12;;;;;;;17.95;2.80;;;12.30;99.90;;;;;;5034275;28;20064;-64
2022/10/02 03:19:59;;;;;;;13.50;2.30;;;12.30;99.90;;;;;;5034138;28;20045;-64
2022/10/02 03:22:48;;;;;;;10.65;2.30;;;12.20;99.90;;;;;;5034903;28;20045;-64
2022/10/02 03:25:30;;;;;;;11.48;2.13;;;12.20;99.90;;;;;;5022505;28;20168;-64
2022/10/02 03:28:02;;;;;;;18.00;2.50;;;12.10;99.90;;;;;;5034075;28;20041;-64
2022/10/02 03:30:28;;;;;;;10.57;2.13;;;12.20;99.90;;;;;;5034069;28;20041;-64
2022/10/02 03:32:55;;;;;;;9.38;2.28;;;12.10;99.90;;;;;;5034151;28;20045;-64
2022/10/02 03:35:22;;;;;;;10.27;2.00;;;12.00;99.90;;;;;;5034010;28;20048;-64
2022/10/02 03:37:51;;;;;;;9.98;1.95;;;12.10;99.90;;;;;;5033974;28;20377;-64
2022/10/02 03:40:22;;;;;;;15.25;2.97;;;12.00;99.90;;;;;;5035309;28;20056;-64
2022/10/02 03:42:47;;;;;;;15.25;2.42;;;12.00;99.90;;;;;;5034073;28;20147;-64
2022/10/02 03:45:13;;;;;;;13.77;2.88;;;12.00;99.90;;;;;;5034934;28;20064;-64
2022/10/02 03:47:38;;;;;;;12.52;2.55;;;12.00;99.90;;;;;;5035086;28;20041;-64
2022/10/02 03:50:05;;;;;;;9.55;2.17;;;12.20;99.90;;;;;;5033602;28;20072;-64
2022/10/02 03:52:33;;;;;;;16.42;2.50;;;11.80;99.90;;;;;;5035116;28;20088;-64
2022/10/02 03:55:03;;;;;;;11.30;1.83;;;11.90;99.90;;;;;;5034960;28;20038;-64
2022/10/02 03:57:32;;;;;;;6.82;1.92;;;11.90;99.90;;;;;;5035206;28;20033;-64
2022/10/02 04:00:12;;;;;;;13.23;2.30;;;12.10;99.90;;;;;;5033582;28;20549;-64
2022/10/02 04:02:48;;;;;;;11.15;2.10;;;11.90;99.90;;;;;;5034835;28;20065;-64
2022/10/02 04:05:25;;;;;;;11.07;2.13;;;12.10;99.90;;;;;;5033488;28;20094;-64
2022/10/02 04:07:58;;;;;;;11.95;2.47;;;11.80;99.90;;;;;;5033410;28;20048;-64
2022/10/02 04:10:39;;;;;;;8.00;1.73;;;12.00;99.90;;;;;;5034846;28;20087;-64
2022/10/02 04:13:15;;;;;;;11.50;2.33;;;12.00;99.90;;;;;;5020873;28;20091;-64
2022/10/02 04:16:10;;;;;;;12.20;2.10;;;11.80;99.90;;;;;;5034372;28;20061;-63
2022/10/02 04:18:50;;;;;;;11.93;1.75;;;11.70;99.90;;;;;;5013441;28;20045;-64
2022/10/02 04:21:30;;;;;;;9.68;2.42;;;11.70;99.90;;;;;;5030567;28;20037;-64
2022/10/02 04:24:08;;;;;;;17.73;2.70;;;11.60;99.90;;;;;;5034354;28;20104;-64
2022/10/02 04:26:38;;;;;;;13.55;3.58;;;11.60;99.90;;;;;;5033141;28;20046;-64
2022/10/02 04:29:17;;;;;;;7.60;2.08;;;11.60;99.90;;;;;;5033282;28;20081;-64
2022/10/02 04:31:48;;;;;;;9.98;2.50;;;11.60;99.90;;;;;;5033020;28;20096;-64
2022/10/02 04:34:13;;;;;;;10.95;1.88;;;11.60;99.90;;;;;;5031985;28;20061;-64
2022/10/02 04:36:50;;;;;;;11.10;2.03;;;11.70;99.90;;;;;;5034318;28;20160;-64
2022/10/02 04:39:49;;;;;;;11.77;2.03;;;11.50;99.90;;;;;;5032993;28;20067;-63
2022/10/02 04:42:39;;;;;;;7.47;1.92;;;11.50;99.90;;;;;;5022326;28;20041;-64
2022/10/02 04:45:33;;;;;;;9.45;1.70;;;11.50;99.90;;;;;;5033804;28;20430;-64
2022/10/02 04:48:13;;;;;;;8.65;1.95;;;11.30;99.90;;;;;;5032744;28;20048;-63
2022/10/02 04:50:44;;;;;;;12.82;2.00;;;11.30;99.90;;;;;;5020265;28;20045;-63
2022/10/02 04:53:24;;;;;;;8.07;2.47;;;11.30;99.90;;;;;;5033680;28;20120;-64
2022/10/02 04:55:56;;;;;;;10.07;1.92;;;11.50;99.90;;;;;;5033998;28;20400;-64
2022/10/02 04:58:51;;;;;;;13.25;2.20;;;11.40;99.90;;;;;;5032684;28;20134;-63
2022/10/02 05:01:20;;;;;;;10.88;2.08;;;11.20;99.90;;;;;;5020706;28;20033;-64
2022/10/02 05:04:14;;;;;;;11.50;2.00;;;11.20;99.90;;;;;;5032308;28;20045;-64
2022/10/02 05:07:10;;;;;;;9.00;2.40;;;11.20;99.90;;;;;;5033412;28;20033;-63
2022/10/02 05:09:50;;;;;;;9.35;2.25;;;11.20;99.90;;;;;;5032129;28;20088;-64
2022/10/02 05:12:18;;;;;;;23.33;2.97;;;11.10;99.90;;;;;;5033648;28;20444;-64
2022/10/02 05:15:35;;;;;;;17.73;2.60;;;11.00;99.90;;;;;;5033246;28;20047;-64
2022/10/02 05:18:32;;;;;;;11.73;2.10;;;11.00;99.90;;;;;;4989396;28;20491;-64
2022/10/02 05:20:58;;;;;;;10.40;2.35;;;11.10;99.90;;;;;;5031894;28;20535;-64
2022/10/02 05:23:48;;;;;;;8.52;1.92;;;11.10;99.90;;;;;;5031989;28;20120;-64
2022/10/02 05:26:53;;;;;;;12.25;2.30;;;11.20;99.90;;;;;;5032146;28;20377;-63
2022/10/02 05:29:53;;;;;;;14.70;2.83;;;11.00;99.90;;;;;;5031923;28;20041;-63
2022/10/02 05:32:53;;;;;;;12.32;3.05;;;11.10;99.90;;;;;;5022631;28;20041;-64
2022/10/02 05:35:22;;;;;;;12.82;2.00;;;11.10;99.90;;;;;;5019332;28;20034;-63
2022/10/02 05:38:15;;;;;;;11.18;1.95;;;11.10;99.90;;;;;;5033147;28;20136;-64
2022/10/02 05:41:09;;;;;;;9.07;2.10;;;11.00;99.90;;;;;;5022498;28;20072;-64
2022/10/02 05:43:56;;;;;;;14.32;3.38;;;11.00;99.90;;;;;;5032959;28;20431;-63
2022/10/02 05:46:24;;;;;;;12.52;2.15;;;11.00;99.90;;;;;;5031612;28;20511;-64
2022/10/02 05:48:59;;;;;;;13.63;2.33;;;11.00;99.90;;;;;;5033030;28;20033;-64
2022/10/02 05:51:40;;;;;;;10.45;2.03;;;11.00;99.90;;;;;;5031208;28;20091;-63
2022/10/02 05:54:32;;;;;;;10.60;2.40;;;11.10;99.90;;;;;;5020139;28;20065;-64
2022/10/02 05:57:20;;;;;;;14.38;2.67;;;11.00;99.90;;;;;;4993409;28;20095;-64
2022/10/02 06:00:19;;;;;;;17.20;2.28;;;10.90;99.90;;;;;;5031507;28;20060;-64
2022/10/02 06:03:08;;;;;;;12.25;2.03;;;11.10;99.90;;;;;;5031093;28;20450;-65
2022/10/02 06:05:47;;;;;;;19.40;2.47;;;11.30;99.90;;;;;;5025880;28;20057;-64
2022/10/02 06:08:17;;;;;;;12.45;2.33;;;11.10;99.90;;;;;;5031352;28;20041;-65
2022/10/02 06:10:54;;;;;;;17.33;3.42;;;11.20;99.90;;;;;;5032517;28;20403;-65
2022/10/02 06:13:34;;;;;;;10.52;2.85;;;11.30;99.90;;;;;;5032764;28;20229;-65
2022/10/02 06:16:17;;;;;;;12.18;2.28;;;11.40;99.90;;;;;;5031231;28;20064;-65
2022/10/02 06:18:48;;;;;;;12.20;2.45;;;11.50;99.90;;;;;;5031236;28;20276;-65
2022/10/02 06:21:39;;;;;;;15.13;2.88;;;11.70;99.90;;;;;;5028312;28;20056;-65
2022/10/02 06:24:15;;;;;;;17.38;3.20;;;11.60;99.90;;;;;;5032284;28;20038;-66
2022/10/02 06:27:09;;;;;;;17.35;2.58;;;11.70;99.90;;;;;;5020149;28;20045;-65
2022/10/02 06:29:58;;;;;;;9.63;2.47;;;11.70;99.90;;;;;;5030085;28;20072;-65
2022/10/02 06:32:32;;;;;;;14.13;2.67;;;11.90;99.90;;;;;;5031269;28;20045;-65
2022/10/02 06:34:57;;;;;;;14.95;2.60;;;11.70;99.90;;;;;;5028461;28;20049;-65
2022/10/02 06:37:29;;;;;;;12.10;2.22;;;11.70;99.90;;;;;;5030708;28;20044;-65
2022/10/02 06:40:06;;;;;;;18.45;2.75;;;11.70;99.90;;;;;;5030968;28;20041;-66
2022/10/02 06:42:51;;;;;;;10.32;2.30;;;11.80;99.90;;;;;;5030993;28;20385;-64
2022/10/02 06:45:57;;;;;;;14.82;2.58;;;11.80;99.90;;;;;;5030285;28;20067;-66
2022/10/02 06:48:37;;;;;;;15.60;2.30;;;11.90;99.90;;;;;;5032418;28;20042;-65
2022/10/02 06:51:19;;;;;;;14.73;3.70;;;11.90;99.90;;;;;;5023083;28;20552;-66
2022/10/02 06:53:58;;;;;;;13.88;2.72;;;12.20;99.90;;;;;;5026397;28;20053;-66
2022/10/02 06:56:44;;;;;;;13.48;2.63;;;12.20;99.90;;;;;;5031402;28;20405;-65
2022/10/02 06:59:41;;;;;;;10.07;2.47;;;12.40;99.90;;;;;;5018820;28;20510;-64
2022/10/02 07:02:38;;;;;;;11.25;1.80;;;12.30;99.90;;;;;;5032466;28;20103;-66
2022/10/02 07:05:42;;;;;;;13.05;2.88;;;12.50;99.90;;;;;;5017785;28;20060;-64
2022/10/02 07:08:27;;;;;;;13.73;3.70;;;12.70;99.90;;;;;;4994651;28;20437;-64
2022/10/02 07:11:14;;;;;;;10.88;2.60;;;12.60;99.90;;;;;;5034218;28;20045;-64
2022/10/02 07:14:11;;;;;;;9.25;2.15;;;12.70;99.90;;;;;;5006867;28;20496;-63
2022/10/02 07:16:45;;;;;;;10.30;2.75;;;12.80;99.90;;;;;;5022128;28;20064;-64
2022/10/02 07:19:23;;;;;;;11.02;2.35;;;12.90;99.90;;;;;;5033742;28;20091;-64
2022/10/02 07:22:29;;;;;;;12.18;2.20;;;12.90;99.90;;;;;;5033416;28;20046;-65
2022/10/02 07:25:13;;;;;;;15.43;3.08;;;12.80;99.90;;;;;;5034436;28;20030;-65
2022/10/02 07:28:00;;;;;;;16.15;2.70;;;13.00;99.90;;;;;;5034714;28;20073;-65
2022/10/02 07:30:32;;;;;;;11.75;2.40;;;13.20;99.90;;;;;;5033457;28;20045;-64
2022/10/02 07:33:27;;;;;;;11.23;2.22;;;13.20;99.90;;;;;;5032849;28;20049;-65
2022/10/02 07:36:11;;;;;;;8.95;2.58;;;13.30;99.90;;;;;;5032921;28;20116;-65
2022/10/02 07:38:49;;;;;;;10.68;2.42;;;13.50;99.90;;;;;;5000940;28;20471;-65
2022/10/02 07:41:27;;;;;;;14.55;2.53;;;13.60;99.90;;;;;;5015841;28;20041;-66
2022/10/02 07:44:15;;;;;;;15.32;2.75;;;13.70;99.90;;;;;;5014667;28;20041;-65
2022/10/02 07:47:03;;;;;;;16.98;3.20;;;14.10;99.90;;;;;;5020764;28;20075;-65
2022/10/02 07:49:31;;;;;;;14.23;2.75;;;;;;;;;;5020050;28;20052;-64
2022/10/02 07:52:05;;;;;;;14.77;2.90;;;14.10;99.90;;;;;;5017466;28;20053;-65
2022/10/02 07:55:02;;;;;;;11.55;2.17;;;14.10;99.90;;;;;;5034338;28;20053;-65
2022/10/02 07:57:51;;;;;;;14.43;1.95;;;13.80;99.90;;;;;;5015887;28;20053;-65
2022/10/02 08:00:19;;;;;;;16.88;2.55;;;13.70;99.90;;;;;;5032612;28;20057;-65
2022/10/02 08:02:50;;;;;;;10.57;2.30;;;13.90;99.90;;;;;;5034005;28;20037;-65
2022/10/02 08:05:20;;;;;;;13.93;2.83;;;14.10;99.90;;;;;;5034063;28;20091;-65
2022/10/02 08:07:49;;;;;;;11.13;2.60;;;14.10;99.90;;;;;;5031827;28;20434;-65
2022/10/02 08:10:19;;;;;;;12.57;2.47;;;14.10;99.90;;;;;;5033683;28;20037;-64
2022/10/02 08:13:03;;;;;;;14.50;2.80;;;14.70;99.90;;;;;;5033920;28;20044;-64
2022/10/02 08:15:34;;;;;;;15.38;2.78;;;14.80;99.90;;;;;;5032485;28;20065;-65
2022/10/02 08:18:26;;;;;;;14.25;2.80;;;15.00;99.90;;;;;;5015845;28;20041;-65
2022/10/02 08:20:52;;;;;;;14.23;2.97;;;15.80;99.90;;;;;;5033486;28;20116;-64
2022/10/02 08:23:24;;;;;;;11.73;2.38;;;16.00;99.90;;;;;;5032268;28;20044;-65
2022/10/02 08:26:00;;;;;;;12.80;2.45;;;16.30;99.90;;;;;;5032887;28;20146;-66
2022/10/02 08:28:34;;;;;;;15.70;2.22;;;16.20;99.90;;;;;;5012611;28;20120;-65
2022/10/02 08:31:00;;;;;;;16.75;3.67;;;16.50;99.90;;;;;;5027299;28;20033;-65
2022/10/02 08:33:30;;;;;;;10.68;2.40;;;17.20;99.90;;;;;;5018599;28;20466;-64
2022/10/02 08:36:20;;;;;;;13.98;2.70;;;17.10;99.90;;;;;;5017388;28;20041;-64
2022/10/02 08:38:48;;;;;;;11.90;2.00;;;17.20;99.90;;;;;;5013532;28;20125;-65
2022/10/02 08:41:23;;;;;;;15.73;3.05;;;17.70;99.90;;;;;;5013944;28;20033;-65
2022/10/02 08:44:17;;;;;;;13.93;2.28;;;17.70;99.90;;;;;;5015624;28;20440;-66
2022/10/02 08:47:06;;;;;;;9.20;1.52;;;17.80;99.90;;;;;;5014416;28;20096;-66
2022/10/02 08:49:34;;;;;;;8.48;1.70;;;17.60;99.90;;;;;;5044292;28;20495;-66
2022/10/02 08:52:38;;;;;;;11.77;1.95;;;17.60;99.90;;;;;;5012678;28;20496;-66
2022/10/02 08:55:10;;;;;;;14.27;2.40;;;17.50;99.90;;;;;;5010714;28;20053;-65
2022/10/02 08:58:17;;;;;;;14.80;2.65;;;17.40;99.90;;;;;;5025302;28;20048;-65
2022/10/02 09:01:08;;;;;;;11.43;2.05;;;17.80;99.90;;;;;;5021846;28;20403;-66
2022/10/02 09:04:09;;;;;;;14.00;2.40;;;17.60;99.90;;;;;;5013492;28;20055;-66
2022/10/02 09:07:04;;;;;;;16.80;2.90;;;17.50;99.90;;;;;;5024923;28;20034;-66
2022/10/02 09:09:45;;;;;;;9.60;1.75;;;17.20;99.90;;;;;;5032301;28;20083;-68
2022/10/02 09:12:30;;;;;;;9.55;2.30;;;17.00;99.90;;;;;;5030987;28;20492;-66
2022/10/02 09:14:56;;;;;;;15.02;2.08;;;16.90;99.90;;;;;;5025256;28;20522;-65
2022/10/02 09:17:40;;;;;;;14.02;2.25;;;16.70;99.90;;;;;;5030489;28;20076;-65
2022/10/02 09:20:24;;;;;;;15.55;2.45;;;16.50;99.90;;;;;;5011364;28;20041;-65
2022/10/02 09:23:08;;;;;;;20.60;3.70;;;16.90;99.90;;;;;;5030363;28;20080;-64
2022/10/02 09:25:54;;;;;;;13.23;1.95;;;17.30;99.90;;;;;;5033442;28;20407;-64
2022/10/02 09:28:45;;;;;;;11.90;2.30;;;18.10;99.90;;;;;;5032377;28;20064;-66
2022/10/02 09:31:28;;;;;;;17.75;2.40;;;19.10;99.90;;;;;;5031273;28;20088;-66
2022/10/02 09:34:06;;;;;;;8.00;1.83;;;21.60;99.90;;;;;;5030628;28;20492;-65
2022/10/02 09:36:50;;;;;;;10.70;1.83;;;22.50;99.90;;;;;;5031829;28;20041;-65
2022/10/02 09:39:37;;;;;;;13.48;2.33;;;22.70;99.90;;;;;;5032802;28;20113;-64
2022/10/02 09:42:39;;;;;;;10.90;2.35;;;22.50;99.90;;;;;;5020314;28;20041;-65
2022/10/02 09:45:31;;;;;;;13.68;2.88;;;21.60;99.90;;;;;;5030832;28;20052;-65
2022/10/02 09:48:14;;;;;;;10.82;1.58;;;22.60;99.90;;;;;;5032509;28;20029;-66
2022/10/02 09:50:52;;;;;;;9.18;1.38;;;23.60;99.90;;;;;;5026045;28;20091;-65
2022/10/02 09:53:23;;;;;;;12.32;1.90;;;23.30;99.90;;;;;;5031566;28;20403;-66
2022/10/02 09:56:39;;;;;;;10.82;1.70;;;22.80;99.90;;;;;;5031636;28;20047;-65
2022/10/02 09:59:39;;;;;;;9.20;1.23;;;22.60;99.90;;;;;;4936081;29;20054;-66
2022/10/02 10:02:26;;;;;;;9.68;1.65;;;23.50;99.90;;;;;;4952721;29;20404;-66
2022/10/02 10:05:26;;;;;;;8.07;1.48;;;23.60;99.90;;;;;;5024084;28;20049;-66
2022/10/02 10:08:19;;;;;;;6.60;1.20;;;22.50;99.90;;;;;;5032681;28;20502;-65
2022/10/02 10:10:51;;;;;;;11.32;1.70;;;21.70;99.90;;;;;;5031118;28;20053;-64
2022/10/02 10:13:41;;;;;;;11.00;1.63;;;21.30;99.90;;;;;;5032991;28;20428;-65
2022/10/02 10:16:21;;;;;;;11.98;1.75;;;20.70;99.90;;;;;;5031369;28;20061;-65
2022/10/02 10:19:04;;;;;;;11.43;1.75;;;20.20;99.90;;;;;;5031427;28;20049;-65
2022/10/02 10:21:51;;;;;;;14.95;1.40;;;20.60;99.90;;;;;;5032530;28;20076;-64
2022/10/02 10:24:38;;;;;;;7.85;1.83;;;20.40;99.90;;;;;;5027811;28;20502;-64
2022/10/02 10:27:19;;;;;;;10.02;1.70;;;19.80;99.90;;;;;;5008552;28;20057;-64
2022/10/02 10:30:10;;;;;;;13.18;2.22;;;19.90;99.90;;;;;;5028587;28;20037;-66
2022/10/02 10:33:01;;;;;;;9.13;2.00;;;19.70;99.90;;;;;;5029060;28;20045;-64
2022/10/02 10:35:52;;;;;;;8.48;1.13;;;19.30;99.90;;;;;;5019480;28;20037;-64
2022/10/02 10:38:33;;;;;;;8.68;1.45;;;19.10;99.90;;;;;;5030571;28;20407;-64
2022/10/02 10:41:11;;;;;;;7.80;2.25;;;18.60;99.90;;;;;;5017810;28;20049;-65
2022/10/02 10:43:55;;;;;;;12.68;1.67;;;18.60;99.90;;;;;;5022567;28;20149;-65
2022/10/02 10:46:50;;;;;;;12.25;1.95;;;18.30;99.90;;;;;;5030904;28;20397;-64
2022/10/02 10:49:29;;;;;;;15.50;2.60;;;18.40;99.90;;;;;;5026757;28;20115;-64
2022/10/02 10:52:10;;;;;;;10.95;2.15;;;18.80;99.90;;;;;;5041625;28;20054;-65
2022/10/02 10:54:53;;;;;;;9.98;1.45;;;18.60;99.90;;;;;;5034427;28;20131;-65
2022/10/02 10:58:07;;;;;;;8.95;1.63;;;18.50;99.90;;;;;;5034645;28;20045;-65
2022/10/02 11:01:06;;;;;;;10.60;2.15;;;18.50;99.90;;;;;;4946995;28;20457;-65
2022/10/02 11:03:58;;;;;;;14.43;2.70;;;18.40;99.90;;;;;;4996909;28;20511;-65
2022/10/02 11:07:02;;;;;;;12.80;1.75;;;17.60;99.90;;;;;;5000419;28;20040;-65
2022/10/02 11:09:54;;;;;;;14.70;1.95;;;17.50;99.90;;;;;;5015820;28;20096;-65
2022/10/02 11:12:45;;;;;;;10.68;1.90;;;17.40;99.90;;;;;;5027572;28;20124;-66
2022/10/02 11:15:42;;;;;;;12.57;2.22;;;17.40;99.90;;;;;;5022878;28;20049;-65
2022/10/02 11:18:29;;;;;;;12.20;1.92;;;17.30;99.90;;;;;;5021873;28;20045;-64
2022/10/02 11:21:11;;;;;;;13.48;1.85;;;17.20;99.90;;;;;;5021642;28;20523;-66
2022/10/02 11:24:07;;;;;;;19.98;2.45;;;17.00;99.90;;;;;;5020173;28;20037;-66
2022/10/02 11:26:49;;;;;;;9.65;2.15;;;17.00;99.90;;;;;;5023680;28;20041;-67
2022/10/02 11:29:40;;;;;;;13.50;2.38;;;16.80;99.90;;;;;;5016725;28;20034;-66
2022/10/02 11:32:30;;;;;;;12.40;2.22;;;16.80;99.90;;;;;;5016328;28;20045;-66
2022/10/02 11:35:02;;;;;;;19.35;4.20;;;16.80;99.90;;;;;;5017216;28;20041;-65
2022/10/02 11:37:46;;;;;;;14.82;2.13;;;16.80;99.90;;;;;;5021179;28;20084;-66
2022/10/02 11:40:35;;;;;;;14.45;2.65;;;16.80;99.90;;;;;;4996332;28;20069;-65
2022/10/02 11:43:37;;;;;;;11.45;1.67;;;16.70;99.90;;;;;;5015580;28;20049;-66
2022/10/02 11:46:44;;;;;;;12.40;2.17;;;16.80;99.90;;;;;;5016274;28;20041;-66
2022/10/02 11:49:39;;;;;;;12.88;2.28;;;16.80;99.90;;;;;;5014753;28;20499;-65
2022/10/02 11:52:22;;;;;;;11.65;1.88;;;16.70;99.90;;;;;;5032314;28;20052;-65
2022/10/02 11:55:27;;;;;;;13.23;2.70;;;16.70;99.90;;;;;;5033379;28;20148;-65
2022/10/02 11:58:09;;;;;;;15.05;6.35;;;16.50;99.90;;;;;;5025998;28;20063;-66
2022/10/02 12:00:38;;;;;;;17.35;6.82;;;16.70;99.90;;;;;;5034232;28;20052;-65
2022/10/02 12:03:25;;;;;;;16.65;3.30;;;16.60;99.90;;;;;;5034157;28;20037;-65
2022/10/02 12:06:03;;;;;;;10.55;2.78;;;16.50;99.90;;;;;;5034039;28;20092;-65
2022/10/02 12:08:50;;;;;;;15.23;2.67;;;16.50;99.90;;;;;;5015467;28;20048;-66
2022/10/02 12:11:39;;;;;;;16.35;3.17;;;16.40;99.90;;;;;;5030246;28;20088;-65
2022/10/02 12:14:36;;;;;;;9.90;2.60;;;16.40;99.90;;;;;;5031629;28;20207;-68
2022/10/02 12:17:31;;;;;;;15.25;3.50;;;16.30;99.90;;;;;;4984046;28;20049;-66
2022/10/02 12:26:57;;;;;;;13.40;3.00;;;16.30;99.90;;;;;;4999165;28;20049;-65
2022/10/02 12:29:42;;;;;;;11.43;1.90;;;16.10;99.90;;;;;;5024574;28;20037;-64
2022/10/02 12:32:22;;;;;;;11.90;2.22;;;16.10;99.90;;;;;;5030909;28;20041;-63
2022/10/02 12:34:56;;;;;;;11.23;2.20;;;15.90;99.90;;;;;;5032698;28;20041;-65
2022/10/02 12:37:31;;;;;;;14.55;2.58;;;15.90;99.90;;;;;;5032146;28;20053;-64
2022/10/02 12:40:36;;;;;;;11.18;1.33;;;15.90;99.90;;;;;;5029092;28;20045;-64
2022/10/02 12:43:20;;;;;;;10.73;1.88;;;15.90;99.90;;;;;;5033402;28;20316;-64
2022/10/02 12:46:20;;;;;;;13.77;3.22;;;15.70;99.90;;;;;;5031431;28;20048;-63
2022/10/02 12:48:56;;;;;;;12.02;2.15;;;15.80;99.90;;;;;;5033585;28;20040;-64
2022/10/02 12:51:37;;;;;;;12.50;1.83;;;15.90;99.90;;;;;;5033778;28;20103;-64
2022/10/02 12:54:21;;;;;;;16.17;1.80;;;16.00;99.90;;;;;;5020567;28;20132;-64
2022/10/02 12:57:07;;;;;;;11.93;1.85;;;16.10;99.90;;;;;;5032372;28;20043;-64
2022/10/02 12:59:49;;;;;;;10.00;1.67;;;16.30;99.90;;;;;;5033535;28;20037;-64
2022/10/02 13:02:50;;;;;;;10.48;1.80;;;16.30;99.90;;;;;;5033391;28;20042;-64
2022/10/02 13:05:34;;;;;;;11.93;1.83;;;16.30;99.90;;;;;;5022858;28;20045;-64
2022/10/02 13:08:14;;;;;;;9.43;1.95;;;16.30;99.90;;;;;;5020073;28;20064;-64
2022/10/02 13:11:13;;;;;;;16.52;2.63;;;16.50;99.90;;;;;;5031274;28;20108;-64
2022/10/02 13:13:52;;;;;;;5.97;1.50;;;16.50;99.90;;;;;;5031241;28;20048;-64
2022/10/02 13:16:55;;;;;;;8.95;1.27;;;16.50;99.90;;;;;;5031346;28;20129;-64
2022/10/02 13:19:53;;;;;;;10.80;2.10;;;16.30;99.90;;;;;;5032905;28;20087;-64
2022/10/02 13:22:36;;;;;;;14.38;3.90;;;16.30;99.90;;;;;;5032737;28;20045;-64
2022/10/02 13:25:24;;;;;;;10.15;2.30;;;16.20;99.90;;;;;;5018427;28;20045;-63
2022/10/02 13:28:12;;;;;;;13.65;2.35;;;16.30;99.90;;;;;;5014900;28;20492;-64
2022/10/02 13:31:13;;;;;;;9.23;1.70;;;16.30;99.90;;;;;;5031471;28;20160;-64
2022/10/02 13:34:05;;;;;;;9.93;2.75;;;16.30;99.90;;;;;;5018598;28;20516;-64
2022/10/02 13:36:46;;;;;;;12.60;1.77;;;16.40;99.90;;;;;;5031290;28;20558;-64
2022/10/02 13:39:52;;;;;;;11.57;1.80;;;16.50;99.90;;;;;;5032436;28;20075;-64
2022/10/02 13:42:47;;;;;;;14.25;2.40;;;16.50;99.90;;;;;;5003509;28;20041;-64
2022/10/02 13:45:15;;;;;;;10.93;3.22;;;16.60;99.90;;;;;;5031293;28;20038;-62
2022/10/02 13:47:42;;;;;;;17.50;2.30;;;16.40;99.90;;;;;;5031210;28;20276;-62
2022/10/02 13:50:36;;;;;;;13.85;2.17;;;16.60;99.90;;;;;;5030983;28;20063;-62
2022/10/02 13:53:02;;;;;;;11.80;2.50;;;;;;;;;;5032374;28;20041;-62
2022/10/02 13:55:32;;;;;;;12.88;1.65;;;16.70;99.90;;;;;;5030786;28;20533;-63
2022/10/02 13:58:24;;;;;;;7.30;1.30;;;16.70;99.90;;;;;;5031057;28;20049;-62
2022/10/02 14:01:03;;;;;;;10.68;1.45;;;16.70;99.90;;;;;;5014330;28;20388;-62
2022/10/02 14:03:55;;;;;;;13.77;2.22;;;16.60;99.90;;;;;;5031741;28;20496;-63
2022/10/02 14:06:41;;;;;;;10.18;2.03;;;16.80;99.90;;;;;;5032571;28;20036;-63